Time,TemperatureF,DewpointF,PressureIn,WindDirection,WindDirectionDegrees,WindSpeedMPH,WindSpeedGustMPH,Humidity,HourlyPrecipIn,Conditions,Clouds,dailyrainin,SoftwareType,DateUTC
2013-04-25 00:01:00,50.7,6.2,27.58,SSW,197,3.6,6.3,16,0.00,,---,0.00,VWS V14.01,2013-04-25 07:01:00,
2013-04-25 00:06:00,50.7,6.2,27.58,South,190,3.1,5.8,16,0.00,,---,0.00,VWS V14.01,2013-04-25 07:06:00,
2013-04-25 00:11:00,50.4,5.9,27.58,SSW,193,5.4,5.4,16,0.00,,---,0.00,VWS V14.01,2013-04-25 07:11:00,
2013-04-25 00:16:00,50.2,5.7,27.58,SSE,163,0.0,4.0,16,0.00,,---,0.00,VWS V14.01,2013-04-25 07:16:00,
2013-04-25 00:21:00,50.0,5.6,27.58,SW,217,4.0,4.0,16,0.00,,---,0.00,VWS V14.01,2013-04-25 07:21:00,
2013-04-25 00:26:00,50.0,5.6,27.58,South,175,3.1,4.0,16,0.00,,---,0.00,VWS V14.01,2013-04-25 07:26:00,
2013-04-25 00:31:00,50.2,5.7,27.58,SSE,153,2.7,2.7,16,0.00,,---,0.00,VWS V14.01,2013-04-25 07:31:00,
2013-04-25 00:36:00,50.2,5.7,27.58,South,175,0.0,0.0,16,0.00,,---,0.00,VWS V14.01,2013-04-25 07:36:00,
2013-04-25 00:41:00,50.2,5.7,27.58,South,175,0.0,0.0,16,0.00,,---,0.00,VWS V14.01,2013-04-25 07:41:00,
2013-04-25 00:46:00,49.8,5.4,27.58,South,175,0.0,0.0,16,0.00,,---,0.00,VWS V14.01,2013-04-25 07:46:00,
2013-04-25 00:50:00,49.3,5.0,27.58,South,175,0.0,0.0,16,0.00,,---,0.00,VWS V14.01,2013-04-25 07:50:00,
2013-04-25 00:55:00,48.7,4.6,27.58,South,175,0.0,0.0,16,0.00,,---,0.00,VWS V14.01,2013-04-25 07:55:00,
2013-04-25 01:00:00,48.2,4.1,27.58,South,175,0.0,0.0,16,0.00,,---,0.00,VWS V14.01,2013-04-25 08:00:00,
2013-04-25 01:05:00,47.7,5.0,27.58,South,175,0.0,0.0,17,0.00,,---,0.00,VWS V14.01,2013-04-25 08:05:00,
2013-04-25 01:10:00,47.5,4.8,27.58,South,175,0.0,0.0,17,0.00,,---,0.00,VWS V14.01,2013-04-25 08:10:00,
2013-04-25 01:15:00,47.8,5.2,27.58,South,175,0.0,0.0,17,0.00,,---,0.00,VWS V14.01,2013-04-25 08:15:00,
2013-04-25 01:20:00,47.7,5.0,27.58,South,175,0.0,0.0,17,0.00,,---,0.00,VWS V14.01,2013-04-25 08:20:00,
2013-04-25 01:25:00,47.3,4.7,27.58,South,175,0.0,0.0,17,0.00,,---,0.00,VWS V14.01,2013-04-25 08:25:00,
2013-04-25 01:30:00,47.1,4.6,27.58,NW,319,0.0,0.0,17,0.00,,---,0.00,VWS V14.01,2013-04-25 08:30:00,
2013-04-25 01:35:00,47.1,4.6,27.58,NNW,327,0.0,0.0,17,0.00,,---,0.00,VWS V14.01,2013-04-25 08:35:00,
2013-04-25 01:40:00,46.8,4.3,27.58,NW,326,0.0,0.0,17,0.00,,---,0.00,VWS V14.01,2013-04-25 08:40:00,
2013-04-25 01:45:00,46.6,4.1,27.58,NW,326,0.0,0.0,17,0.00,,---,0.00,VWS V14.01,2013-04-25 08:45:00,
2013-04-25 01:50:00,46.4,4.0,27.58,NNW,333,0.0,0.0,17,0.00,,---,0.00,VWS V14.01,2013-04-25 08:50:00,
2013-04-25 01:55:00,45.9,3.5,27.58,NNW,333,0.0,0.0,17,0.00,,---,0.00,VWS V14.01,2013-04-25 08:55:00,
2013-04-25 02:00:00,45.5,3.2,27.58,NNW,333,0.0,0.0,17,0.00,,---,0.00,VWS V14.01,2013-04-25 09:00:00,
2013-04-25 02:05:00,45.3,3.1,27.55,NNW,338,0.0,0.0,17,0.00,,---,0.00,VWS V14.01,2013-04-25 09:05:00,
2013-04-25 02:10:00,45.5,3.2,27.55,NNW,331,0.0,0.0,17,0.00,,---,0.00,VWS V14.01,2013-04-25 09:10:00,
2013-04-25 02:15:00,45.9,3.5,27.55,NNW,331,0.0,0.0,17,0.00,,---,0.00,VWS V14.01,2013-04-25 09:15:00,
2013-04-25 02:20:00,46.0,3.7,27.55,WNW,297,0.0,0.0,17,0.00,,---,0.00,VWS V14.01,2013-04-25 09:20:00,
2013-04-25 02:25:00,46.4,4.0,27.55,NNW,332,0.0,0.0,17,0.00,,---,0.00,VWS V14.01,2013-04-25 09:25:00,
2013-04-25 02:30:00,45.9,3.5,27.55,NNW,332,0.0,0.0,17,0.00,,---,0.00,VWS V14.01,2013-04-25 09:30:00,
2013-04-25 02:35:00,45.9,3.5,27.55,WNW,285,0.0,0.0,17,0.00,,---,0.00,VWS V14.01,2013-04-25 09:35:00,
2013-04-25 02:40:00,45.9,3.5,27.55,ENE,58,0.0,0.0,17,0.00,,---,0.00,VWS V14.01,2013-04-25 09:40:00,
2013-04-25 02:45:00,45.7,3.4,27.55,ENE,58,0.0,0.0,17,0.00,,---,0.00,VWS V14.01,2013-04-25 09:45:00,
2013-04-25 02:50:00,45.5,3.2,27.55,ENE,58,0.0,0.0,17,0.00,,---,0.00,VWS V14.01,2013-04-25 09:50:00,
2013-04-25 02:55:00,45.3,3.1,27.55,NW,326,0.0,0.0,17,0.00,,---,0.00,VWS V14.01,2013-04-25 09:55:00,
2013-04-25 03:00:00,45.0,2.8,27.55,NW,326,0.0,0.0,17,0.00,,---,0.00,VWS V14.01,2013-04-25 10:00:00,
2013-04-25 03:05:00,45.1,2.9,27.55,NW,326,0.0,0.0,17,0.00,,---,0.00,VWS V14.01,2013-04-25 10:05:00,
2013-04-25 03:10:00,45.5,3.2,27.55,North,0,4.9,4.9,17,0.00,,---,0.00,VWS V14.01,2013-04-25 10:10:00,
2013-04-25 03:15:00,44.4,3.6,27.55,North,353,7.6,8.7,18,0.00,,---,0.00,VWS V14.01,2013-04-25 10:15:00,
2013-04-25 03:20:00,43.7,3.0,27.55,NNW,346,5.8,6.7,18,0.00,,---,0.00,VWS V14.01,2013-04-25 10:20:00,
2013-04-25 03:25:00,43.5,2.8,27.55,NNW,329,2.7,4.0,18,0.00,,---,0.00,VWS V14.01,2013-04-25 10:25:00,
2013-04-25 03:30:00,43.5,2.8,27.55,NW,323,3.6,3.6,18,0.00,,---,0.00,VWS V14.01,2013-04-25 10:30:00,
2013-04-25 03:35:00,43.3,2.7,27.55,NW,322,3.6,4.0,18,0.00,,---,0.00,VWS V14.01,2013-04-25 10:35:00,
2013-04-25 03:40:00,43.3,2.7,27.55,NW,325,4.0,4.5,18,0.00,,---,0.00,VWS V14.01,2013-04-25 10:40:00,
2013-04-25 03:45:00,43.3,2.7,27.55,North,357,5.4,5.8,18,0.00,,---,0.00,VWS V14.01,2013-04-25 10:45:00,
2013-04-25 03:50:00,43.3,2.7,27.55,North,353,4.0,4.9,18,0.00,,---,0.00,VWS V14.01,2013-04-25 10:50:00,
2013-04-25 03:55:00,43.2,2.5,27.55,NNW,336,0.0,0.0,18,0.00,,---,0.00,VWS V14.01,2013-04-25 10:55:00,
2013-04-25 04:00:00,43.3,2.7,27.55,NNW,334,0.0,0.0,18,0.00,,---,0.00,VWS V14.01,2013-04-25 11:00:00,
2013-04-25 04:05:00,43.3,2.7,27.55,North,0,5.4,5.4,18,0.00,,---,0.00,VWS V14.01,2013-04-25 11:05:00,
2013-04-25 04:10:00,43.3,2.7,27.55,North,8,3.6,4.9,18,0.00,,---,0.00,VWS V14.01,2013-04-25 11:10:00,
2013-04-25 04:15:00,43.5,2.8,27.55,North,353,0.0,0.0,18,0.00,,---,0.00,VWS V14.01,2013-04-25 11:15:00,
2013-04-25 04:20:00,43.5,2.8,27.55,NW,325,0.0,0.0,18,0.00,,---,0.00,VWS V14.01,2013-04-25 11:20:00,
2013-04-25 04:25:00,43.5,2.8,27.55,North,353,0.0,0.0,18,0.00,,---,0.00,VWS V14.01,2013-04-25 11:25:00,
2013-04-25 04:30:00,43.7,3.0,27.55,NNW,334,0.0,0.0,18,0.00,,---,0.00,VWS V14.01,2013-04-25 11:30:00,
2013-04-25 04:35:00,43.5,2.8,27.55,North,353,0.0,0.0,18,0.00,,---,0.00,VWS V14.01,2013-04-25 11:35:00,
2013-04-25 04:40:00,43.5,2.8,27.55,North,0,0.0,0.0,18,0.00,,---,0.00,VWS V14.01,2013-04-25 11:40:00,
2013-04-25 04:45:00,43.3,2.7,27.55,NNW,338,0.0,0.0,18,0.00,,---,0.00,VWS V14.01,2013-04-25 11:45:00,
2013-04-25 04:50:00,43.2,2.5,27.55,North,0,0.0,0.0,18,0.00,,---,0.00,VWS V14.01,2013-04-25 11:50:00,
2013-04-25 04:55:00,43.3,2.7,27.55,North,349,0.0,3.1,18,0.00,,---,0.00,VWS V14.01,2013-04-25 11:55:00,
2013-04-25 05:00:00,43.5,2.8,27.55,North,349,0.0,0.0,18,0.00,,---,0.00,VWS V14.01,2013-04-25 12:00:00,
2013-04-25 05:05:00,43.3,2.7,27.55,North,349,0.0,0.0,18,0.00,,---,0.00,VWS V14.01,2013-04-25 12:05:00,
2013-04-25 05:10:00,43.3,2.7,27.55,North,349,0.0,0.0,18,0.00,,---,0.00,VWS V14.01,2013-04-25 12:10:00,
2013-04-25 05:15:00,43.5,2.8,27.55,NW,315,0.0,0.0,18,0.00,,---,0.00,VWS V14.01,2013-04-25 12:15:00,
2013-04-25 05:20:00,43.5,2.8,27.55,NW,309,0.0,0.0,18,0.00,,---,0.00,VWS V14.01,2013-04-25 12:20:00,
2013-04-25 05:25:00,43.5,2.8,27.55,NW,309,0.0,0.0,18,0.00,,---,0.00,VWS V14.01,2013-04-25 12:25:00,
2013-04-25 05:30:00,43.3,2.7,27.55,West,281,0.0,0.0,18,0.00,,---,0.00,VWS V14.01,2013-04-25 12:30:00,
2013-04-25 05:35:00,43.2,2.5,27.55,WNW,297,0.0,0.0,18,0.00,,---,0.00,VWS V14.01,2013-04-25 12:35:00,
2013-04-25 05:40:00,43.5,2.8,27.55,WNW,295,0.0,0.0,18,0.00,,---,0.00,VWS V14.01,2013-04-25 12:40:00,
2013-04-25 05:45:00,43.7,3.0,27.55,West,268,0.0,0.0,18,0.00,,---,0.00,VWS V14.01,2013-04-25 12:45:00,
2013-04-25 05:50:00,43.5,2.8,27.55,NW,315,4.0,5.4,18,0.00,,---,0.00,VWS V14.01,2013-04-25 12:50:00,
2013-04-25 05:55:00,43.0,2.4,27.55,WNW,295,4.5,4.5,18,0.00,,---,0.00,VWS V14.01,2013-04-25 12:55:00,
2013-04-25 06:00:00,42.6,2.1,27.55,WNW,300,4.0,4.0,18,0.00,,---,0.00,VWS V14.01,2013-04-25 13:00:00,
2013-04-25 06:05:00,42.4,1.9,27.55,WNW,298,4.9,4.9,18,0.00,,---,0.00,VWS V14.01,2013-04-25 13:05:00,
2013-04-25 06:10:00,42.4,1.9,27.55,North,350,4.0,4.0,18,0.00,,---,0.00,VWS V14.01,2013-04-25 13:10:00,
2013-04-25 06:15:00,42.4,1.9,27.55,NNW,331,0.0,2.7,18,0.00,,---,0.00,VWS V14.01,2013-04-25 13:15:00,
2013-04-25 06:20:00,42.6,2.1,27.55,NNW,340,3.6,3.6,18,0.00,,---,0.00,VWS V14.01,2013-04-25 13:20:00,
2013-04-25 06:25:00,42.8,4.5,27.55,NNW,345,0.0,0.0,20,0.00,,---,0.00,VWS V14.01,2013-04-25 13:25:00,
2013-04-25 06:30:00,43.2,2.5,27.55,NNW,329,0.0,0.0,18,0.00,,---,0.00,VWS V14.01,2013-04-25 13:30:00,
2013-04-25 06:35:00,43.7,3.0,27.55,NNW,329,0.0,0.0,18,0.00,,---,0.00,VWS V14.01,2013-04-25 13:35:00,
2013-04-25 06:40:00,44.6,2.5,27.55,North,353,0.0,0.0,17,0.00,,---,0.00,VWS V14.01,2013-04-25 13:40:00,
2013-04-25 06:45:00,45.0,2.8,27.55,NNE,26,0.0,0.0,17,0.00,,---,0.00,VWS V14.01,2013-04-25 13:45:00,
2013-04-25 06:50:00,45.3,3.1,27.55,NE,35,0.0,0.0,17,0.00,,---,0.00,VWS V14.01,2013-04-25 13:50:00,
2013-04-25 06:55:00,45.5,3.2,27.55,North,353,0.0,0.0,17,0.00,,---,0.00,VWS V14.01,2013-04-25 13:55:00,
2013-04-25 07:00:00,45.5,3.2,27.55,NNE,14,0.0,0.0,17,0.00,,---,0.00,VWS V14.01,2013-04-25 14:00:00,
2013-04-25 07:05:00,45.7,3.4,27.55,North,10,0.0,0.0,17,0.00,,---,0.00,VWS V14.01,2013-04-25 14:05:00,
2013-04-25 07:10:00,46.2,3.8,27.55,NW,317,0.0,0.0,17,0.00,,---,0.00,VWS V14.01,2013-04-25 14:10:00,
2013-04-25 07:15:00,46.9,4.4,27.55,NW,322,0.0,0.0,17,0.00,,---,0.00,VWS V14.01,2013-04-25 14:15:00,
2013-04-25 07:20:00,47.3,4.7,27.55,North,349,3.1,3.1,17,0.00,,---,0.00,VWS V14.01,2013-04-25 14:20:00,
2013-04-25 07:25:00,47.5,4.8,27.55,North,349,0.0,0.0,17,0.00,,---,0.00,VWS V14.01,2013-04-25 14:25:00,
2013-04-25 07:30:00,47.5,4.8,27.55,SE,139,0.0,0.0,17,0.00,,---,0.00,VWS V14.01,2013-04-25 14:30:00,
2013-04-25 07:35:00,48.0,5.3,27.55,SE,139,0.0,0.0,17,0.00,,---,0.00,VWS V14.01,2013-04-25 14:35:00,
2013-04-25 07:40:00,49.3,5.0,27.55,SE,139,0.0,0.0,16,0.00,,---,0.00,VWS V14.01,2013-04-25 14:40:00,
2013-04-25 07:45:00,50.2,5.7,27.55,NNE,16,3.6,3.6,16,0.00,,---,0.00,VWS V14.01,2013-04-25 14:45:00,
2013-04-25 07:50:00,50.0,5.6,27.58,NE,39,2.7,2.7,16,0.00,,---,0.00,VWS V14.01,2013-04-25 14:50:00,
2013-04-25 07:55:00,50.2,5.7,27.58,NE,53,2.7,2.7,16,0.00,,---,0.00,VWS V14.01,2013-04-25 14:55:00,
2013-04-25 08:00:00,50.2,5.7,27.58,NE,49,3.1,3.6,16,0.00,,---,0.00,VWS V14.01,2013-04-25 15:00:00,
2013-04-25 08:05:00,50.2,5.7,27.58,NE,37,0.0,0.0,16,0.00,,---,0.00,VWS V14.01,2013-04-25 15:05:00,
2013-04-25 08:10:00,50.4,5.9,27.58,North,0,0.0,0.0,16,0.00,,---,0.00,VWS V14.01,2013-04-25 15:10:00,
2013-04-25 08:15:00,50.5,6.0,27.58,SE,131,0.0,0.0,16,0.00,,---,0.00,VWS V14.01,2013-04-25 15:15:00,
2013-04-25 08:20:00,51.3,6.6,27.58,SSE,162,0.0,0.0,16,0.00,,---,0.00,VWS V14.01,2013-04-25 15:20:00,
2013-04-25 08:25:00,51.8,7.1,27.58,South,173,0.0,0.0,16,0.00,,---,0.00,VWS V14.01,2013-04-25 15:25:00,
2013-04-25 08:30:00,52.5,7.6,27.58,SSE,157,5.8,5.8,16,0.00,,---,0.00,VWS V14.01,2013-04-25 15:30:00,
2013-04-25 08:35:00,53.4,8.4,27.58,SSW,202,5.8,6.3,16,0.00,,---,0.00,VWS V14.01,2013-04-25 15:35:00,
2013-04-25 08:40:00,54.0,7.4,27.58,South,169,3.1,4.0,15,0.00,,---,0.00,VWS V14.01,2013-04-25 15:40:00,
2013-04-25 08:45:00,54.5,7.8,27.58,SSE,152,4.5,4.5,15,0.00,,---,0.00,VWS V14.01,2013-04-25 15:45:00,
2013-04-25 08:50:00,54.9,8.1,27.58,SSE,158,7.6,8.3,15,0.00,,---,0.00,VWS V14.01,2013-04-25 15:50:00,
2013-04-25 08:55:00,54.9,8.1,27.58,SSW,207,0.0,0.0,15,0.00,,---,0.00,VWS V14.01,2013-04-25 15:55:00,
2013-04-25 09:00:00,54.9,8.1,27.58,South,180,0.0,0.0,15,0.00,,---,0.00,VWS V14.01,2013-04-25 16:00:00,
2013-04-25 09:05:00,55.2,8.4,27.58,South,169,0.0,0.0,15,0.00,,---,0.00,VWS V14.01,2013-04-25 16:05:00,
2013-04-25 09:10:00,55.6,8.7,27.58,South,180,0.0,0.0,15,0.00,,---,0.00,VWS V14.01,2013-04-25 16:10:00,
2013-04-25 09:15:00,55.9,9.0,27.58,South,183,0.0,0.0,15,0.00,,---,0.00,VWS V14.01,2013-04-25 16:15:00,
2013-04-25 09:20:00,56.1,9.1,27.58,SW,221,0.0,0.0,15,0.00,,---,0.00,VWS V14.01,2013-04-25 16:20:00,
2013-04-25 09:25:00,56.3,9.3,27.58,SSW,200,0.0,0.0,15,0.00,,---,0.00,VWS V14.01,2013-04-25 16:25:00,
2013-04-25 09:30:00,56.7,9.6,27.58,SSE,167,0.0,0.0,15,0.00,,---,0.00,VWS V14.01,2013-04-25 16:30:00,
2013-04-25 09:35:00,56.7,9.6,27.58,SSE,152,0.0,0.0,15,0.00,,---,0.00,VWS V14.01,2013-04-25 16:35:00,
2013-04-25 09:40:00,57.0,9.8,27.58,SSE,165,0.0,0.0,15,0.00,,---,0.00,VWS V14.01,2013-04-25 16:40:00,
2013-04-25 09:45:00,56.8,9.7,27.58,South,171,0.0,0.0,15,0.00,,---,0.00,VWS V14.01,2013-04-25 16:45:00,
2013-04-25 09:50:00,56.8,9.7,27.58,SSE,158,0.0,0.0,15,0.00,,---,0.00,VWS V14.01,2013-04-25 16:50:00,
2013-04-25 09:55:00,57.0,9.8,27.58,South,170,0.0,0.0,15,0.00,,---,0.00,VWS V14.01,2013-04-25 16:55:00,
2013-04-25 10:00:00,57.0,9.8,27.58,SSE,165,0.0,0.0,15,0.00,,---,0.00,VWS V14.01,2013-04-25 17:00:00,
2013-04-25 10:05:00,57.0,9.8,27.58,SSE,158,0.0,0.0,15,0.00,,---,0.00,VWS V14.01,2013-04-25 17:05:00,
2013-04-25 10:10:00,57.4,8.6,27.58,South,183,0.0,0.0,14,0.00,,---,0.00,VWS V14.01,2013-04-25 17:10:00,
2013-04-25 10:15:00,57.7,8.9,27.58,South,170,0.0,0.0,14,0.00,,---,0.00,VWS V14.01,2013-04-25 17:15:00,
2013-04-25 10:20:00,58.3,9.3,27.58,South,175,0.0,0.0,14,0.00,,---,0.00,VWS V14.01,2013-04-25 17:20:00,
2013-04-25 10:25:00,57.9,9.0,27.58,SSW,197,0.0,0.0,14,0.00,,---,0.00,VWS V14.01,2013-04-25 17:25:00,
2013-04-25 10:30:00,57.7,8.9,27.58,South,171,0.0,0.0,14,0.00,,---,0.00,VWS V14.01,2013-04-25 17:30:00,
2013-04-25 10:35:00,58.1,9.2,27.58,South,174,0.0,0.0,14,0.00,,---,0.00,VWS V14.01,2013-04-25 17:35:00,
2013-04-25 10:40:00,58.6,9.6,27.58,SSW,192,0.0,0.0,14,0.00,,---,0.00,VWS V14.01,2013-04-25 17:40:00,
2013-04-25 10:45:00,59.4,10.2,27.58,South,184,0.0,0.0,14,0.00,,---,0.00,VWS V14.01,2013-04-25 17:45:00,
2013-04-25 10:50:00,59.7,10.5,27.58,South,173,0.0,0.0,14,0.00,,---,0.00,VWS V14.01,2013-04-25 17:50:00,
2013-04-25 10:55:00,60.3,10.9,27.58,SSE,150,0.0,0.0,14,0.00,,---,0.00,VWS V14.01,2013-04-25 17:55:00,
2013-04-25 11:00:00,60.6,11.2,27.58,SSE,150,0.0,0.0,14,0.00,,---,0.00,VWS V14.01,2013-04-25 18:00:00,
2013-04-25 11:05:00,61.2,11.6,27.58,SE,140,0.0,0.0,14,0.00,,---,0.00,VWS V14.01,2013-04-25 18:05:00,
2013-04-25 11:10:00,61.0,11.5,27.58,SSW,202,0.0,0.0,14,0.00,,---,0.00,VWS V14.01,2013-04-25 18:10:00,
2013-04-25 11:15:00,61.3,11.8,27.58,SSE,157,0.0,0.0,14,0.00,,---,0.00,VWS V14.01,2013-04-25 18:15:00,
2013-04-25 11:20:00,61.0,11.5,27.58,SSE,153,0.0,0.0,14,0.00,,---,0.00,VWS V14.01,2013-04-25 18:20:00,
2013-04-25 11:25:00,61.5,11.9,27.58,SE,145,0.0,0.0,14,0.00,,---,0.00,VWS V14.01,2013-04-25 18:25:00,
2013-04-25 11:30:00,61.7,12.1,27.58,SSE,164,0.0,0.0,14,0.00,,---,0.00,VWS V14.01,2013-04-25 18:30:00,
2013-04-25 11:35:00,62.1,12.3,27.58,South,188,0.0,0.0,14,0.00,,---,0.00,VWS V14.01,2013-04-25 18:35:00,
2013-04-25 11:40:00,62.2,12.5,27.58,ESE,122,0.0,0.0,14,0.00,,---,0.00,VWS V14.01,2013-04-25 18:40:00,
2013-04-25 11:45:00,62.6,11.1,27.58,South,176,0.0,0.0,13,0.00,,---,0.00,VWS V14.01,2013-04-25 18:45:00,
2013-04-25 11:50:00,63.5,11.8,27.58,SW,229,0.0,0.0,13,0.00,,---,0.00,VWS V14.01,2013-04-25 18:50:00,
2013-04-25 11:55:00,63.7,11.9,27.58,SSE,152,0.0,0.0,13,0.00,,---,0.00,VWS V14.01,2013-04-25 18:55:00,
2013-04-25 12:00:00,63.9,12.1,27.58,WSW,254,0.0,0.0,13,0.00,,---,0.00,VWS V14.01,2013-04-25 19:00:00,
2013-04-25 12:05:00,64.4,12.5,27.58,SE,144,0.0,0.0,13,0.00,,---,0.00,VWS V14.01,2013-04-25 19:05:00,
2013-04-25 12:10:00,64.0,12.2,27.58,SSE,152,0.0,0.0,13,0.00,,---,0.00,VWS V14.01,2013-04-25 19:10:00,
2013-04-25 12:15:00,64.6,12.7,27.58,SSE,164,0.0,0.0,13,0.00,,---,0.00,VWS V14.01,2013-04-25 19:15:00,
2013-04-25 12:20:00,64.8,12.8,27.58,South,188,0.0,0.0,13,0.00,,---,0.00,VWS V14.01,2013-04-25 19:20:00,
2013-04-25 12:25:00,65.1,13.1,27.58,SE,133,0.0,0.0,13,0.00,,---,0.00,VWS V14.01,2013-04-25 19:25:00,
2013-04-25 12:30:00,65.3,13.2,27.58,South,170,0.0,0.0,13,0.00,,---,0.00,VWS V14.01,2013-04-25 19:30:00,
2013-04-25 12:35:00,65.3,13.2,27.58,South,177,0.0,0.0,13,0.00,,---,0.00,VWS V14.01,2013-04-25 19:35:00,
2013-04-25 12:40:00,65.1,13.1,27.58,SSW,195,0.0,0.0,13,0.00,,---,0.00,VWS V14.01,2013-04-25 19:40:00,
2013-04-25 12:45:00,65.7,13.5,27.58,SW,232,0.0,0.0,13,0.00,,---,0.00,VWS V14.01,2013-04-25 19:45:00,
2013-04-25 12:50:00,66.4,12.3,27.58,SSE,160,0.0,0.0,12,0.00,,---,0.00,VWS V14.01,2013-04-25 19:50:00,
2013-04-25 12:55:00,66.7,12.5,27.58,SW,214,0.0,0.0,12,0.00,,---,0.00,VWS V14.01,2013-04-25 19:55:00,
2013-04-25 13:00:00,67.3,13.0,27.58,SW,227,0.0,0.0,12,0.00,,---,0.00,VWS V14.01,2013-04-25 20:00:00,
2013-04-25 13:05:00,67.3,13.0,27.58,SW,236,0.0,0.0,12,0.00,,---,0.00,VWS V14.01,2013-04-25 20:05:00,
2013-04-25 13:10:00,66.9,12.7,27.58,West,270,0.0,0.0,12,0.00,,---,0.00,VWS V14.01,2013-04-25 20:10:00,
2013-04-25 13:15:00,66.6,12.4,27.58,WSW,237,0.0,0.0,12,0.00,,---,0.00,VWS V14.01,2013-04-25 20:15:00,
2013-04-25 13:20:00,66.9,12.7,27.58,South,189,0.0,0.0,12,0.00,,---,0.00,VWS V14.01,2013-04-25 20:20:00,
2013-04-25 13:25:00,67.3,13.0,27.58,SSE,153,0.0,0.0,12,0.00,,---,0.00,VWS V14.01,2013-04-25 20:25:00,
2013-04-25 13:30:00,67.3,13.0,27.58,SW,222,0.0,0.0,12,0.00,,---,0.00,VWS V14.01,2013-04-25 20:30:00,
2013-04-25 13:35:00,67.6,13.2,27.58,South,191,0.0,0.0,12,0.00,,---,0.00,VWS V14.01,2013-04-25 20:35:00,
2013-04-25 13:40:00,67.6,13.2,27.58,WSW,246,0.0,0.0,12,0.00,,---,0.00,VWS V14.01,2013-04-25 20:40:00,
2013-04-25 13:45:00,67.8,13.4,27.58,South,188,0.0,0.0,12,0.00,,---,0.00,VWS V14.01,2013-04-25 20:45:00,
2013-04-25 13:50:00,68.2,13.7,27.58,NNW,328,0.0,0.0,12,0.00,,---,0.00,VWS V14.01,2013-04-25 20:50:00,
2013-04-25 13:55:00,67.8,13.4,27.58,WSW,240,0.0,0.0,12,0.00,,---,0.00,VWS V14.01,2013-04-25 20:55:00,
2013-04-25 14:00:00,68.2,13.7,27.58,SW,224,0.0,0.0,12,0.00,,---,0.00,VWS V14.01,2013-04-25 21:00:00,
2013-04-25 14:05:00,68.7,14.1,27.58,SSE,151,0.0,0.0,12,0.00,,---,0.00,VWS V14.01,2013-04-25 21:05:00,
2013-04-25 14:10:00,68.2,13.7,27.58,WSW,246,5.4,8.1,12,0.00,,---,0.00,VWS V14.01,2013-04-25 21:10:00,
2013-04-25 14:15:00,68.2,13.7,27.58,SSE,163,3.6,3.6,12,0.00,,---,0.00,VWS V14.01,2013-04-25 21:15:00,
2013-04-25 14:20:00,68.4,13.8,27.58,West,270,5.8,6.3,12,0.00,,---,0.00,VWS V14.01,2013-04-25 21:20:00,
2013-04-25 14:25:00,68.7,14.1,27.58,South,172,7.6,8.7,12,0.00,,---,0.00,VWS V14.01,2013-04-25 21:25:00,
2013-04-25 14:30:00,68.4,13.8,27.58,SSE,168,5.8,5.8,12,0.00,,---,0.00,VWS V14.01,2013-04-25 21:30:00,
2013-04-25 14:35:00,68.5,13.9,27.58,West,260,8.3,8.3,12,0.00,,---,0.00,VWS V14.01,2013-04-25 21:35:00,
2013-04-25 14:40:00,69.1,14.4,27.58,WNW,282,4.0,5.4,12,0.00,,---,0.00,VWS V14.01,2013-04-25 21:40:00,
2013-04-25 14:45:00,69.8,14.9,27.58,SSE,167,3.6,3.6,12,0.00,,---,0.00,VWS V14.01,2013-04-25 21:45:00,
2013-04-25 14:50:00,69.1,14.4,27.58,WSW,251,10.5,10.5,12,0.00,,---,0.00,VWS V14.01,2013-04-25 21:50:00,
2013-04-25 14:55:00,69.4,14.6,27.58,South,178,8.7,8.7,12,0.00,,---,0.00,VWS V14.01,2013-04-25 21:55:00,
2013-04-25 15:00:00,68.7,14.1,27.58,SSW,209,7.6,10.5,12,0.00,,---,0.00,VWS V14.01,2013-04-25 22:00:00,
2013-04-25 15:05:00,69.1,14.4,27.58,South,169,3.1,3.1,12,0.00,,---,0.00,VWS V14.01,2013-04-25 22:05:00,
2013-04-25 15:10:00,68.7,14.1,27.58,West,264,5.8,8.3,12,0.00,,---,0.00,VWS V14.01,2013-04-25 22:10:00,
2013-04-25 15:15:00,68.7,14.1,27.58,West,263,5.4,5.4,12,0.00,,---,0.00,VWS V14.01,2013-04-25 22:15:00,
2013-04-25 15:20:00,69.3,14.5,27.58,South,190,12.8,12.8,12,0.00,,---,0.00,VWS V14.01,2013-04-25 22:20:00,
2013-04-25 15:25:00,69.4,14.6,27.58,SW,226,5.8,5.8,12,0.00,,---,0.00,VWS V14.01,2013-04-25 22:25:00,
2013-04-25 15:30:00,69.8,14.9,27.58,South,175,3.1,3.1,12,0.00,,---,0.00,VWS V14.01,2013-04-25 22:30:00,
2013-04-25 15:35:00,70.3,15.4,27.58,SSW,207,3.1,5.8,12,0.00,,---,0.00,VWS V14.01,2013-04-25 22:35:00,
2013-04-25 15:40:00,70.2,15.2,27.58,SSE,167,5.8,5.8,12,0.00,,---,0.00,VWS V14.01,2013-04-25 22:40:00,
2013-04-25 15:45:00,69.6,14.8,27.58,South,182,6.3,6.3,12,0.00,,---,0.00,VWS V14.01,2013-04-25 22:45:00,
2013-04-25 15:50:00,69.8,14.9,27.58,SSW,204,6.3,6.3,12,0.00,,---,0.00,VWS V14.01,2013-04-25 22:50:00,
2013-04-25 15:55:00,69.8,14.9,27.58,South,178,6.3,6.3,12,0.00,,---,0.00,VWS V14.01,2013-04-25 22:55:00,
2013-04-25 16:00:00,70.0,15.1,27.58,SSW,206,6.3,6.3,12,0.00,,---,0.00,VWS V14.01,2013-04-25 23:00:00,
2013-04-25 16:05:00,69.6,14.8,27.58,West,276,8.3,8.3,12,0.00,,---,0.00,VWS V14.01,2013-04-25 23:05:00,
2013-04-25 16:10:00,69.4,14.6,27.58,SSW,196,8.3,8.3,12,0.00,,---,0.00,VWS V14.01,2013-04-25 23:10:00,
2013-04-25 16:15:00,69.6,14.8,27.58,South,170,7.6,7.6,12,0.00,,---,0.00,VWS V14.01,2013-04-25 23:15:00,
2013-04-25 16:20:00,70.0,15.1,27.58,SSE,167,3.1,5.8,12,0.00,,---,0.00,VWS V14.01,2013-04-25 23:20:00,
2013-04-25 16:25:00,70.5,15.5,27.58,SSW,196,8.1,8.1,12,0.00,,---,0.00,VWS V14.01,2013-04-25 23:25:00,
2013-04-25 16:30:00,71.1,15.9,27.58,SE,144,6.3,7.6,12,0.00,,---,0.00,VWS V14.01,2013-04-25 23:30:00,
2013-04-25 16:35:00,70.5,15.5,27.58,South,177,8.1,8.1,12,0.00,,---,0.00,VWS V14.01,2013-04-25 23:35:00,
2013-04-25 16:40:00,70.2,15.2,27.58,SSW,207,8.3,8.3,12,0.00,,---,0.00,VWS V14.01,2013-04-25 23:40:00,
2013-04-25 16:45:00,70.0,15.1,27.58,SE,144,10.1,10.1,12,0.00,,---,0.00,VWS V14.01,2013-04-25 23:45:00,
2013-04-25 16:50:00,70.2,15.2,27.58,WSW,240,4.9,4.9,12,0.00,,---,0.00,VWS V14.01,2013-04-25 23:50:00,
2013-04-25 16:55:00,70.2,15.2,27.58,WSW,250,5.8,5.8,12,0.00,,---,0.00,VWS V14.01,2013-04-25 23:55:00,
2013-04-25 17:00:00,70.2,15.2,27.58,WSW,251,7.2,8.3,12,0.00,,---,0.00,VWS V14.01,2013-04-26 00:00:00,
2013-04-25 17:05:00,70.2,15.2,27.58,WSW,240,6.3,8.1,12,0.00,,---,0.00,VWS V14.01,2013-04-26 00:05:00,
2013-04-25 17:10:00,70.0,15.1,27.58,South,184,3.1,4.9,12,0.00,,---,0.00,VWS V14.01,2013-04-26 00:10:00,
2013-04-25 17:15:00,70.0,15.1,27.58,SW,231,6.3,8.7,12,0.00,,---,0.00,VWS V14.01,2013-04-26 00:15:00,
2013-04-25 17:20:00,69.6,14.8,27.58,SSW,198,6.3,8.7,12,0.00,,---,0.00,VWS V14.01,2013-04-26 00:20:00,
2013-04-25 17:25:00,69.4,14.6,27.58,WSW,239,5.4,10.5,12,0.00,,---,0.00,VWS V14.01,2013-04-26 00:25:00,
2013-04-25 17:30:00,69.8,14.9,27.58,SW,226,4.0,7.6,12,0.00,,---,0.00,VWS V14.01,2013-04-26 00:30:00,
2013-04-25 17:35:00,69.8,14.9,27.58,SW,224,3.6,5.4,12,0.00,,---,0.00,VWS V14.01,2013-04-26 00:35:00,
2013-04-25 17:40:00,69.3,14.5,27.58,WSW,239,5.4,6.3,12,0.00,,---,0.00,VWS V14.01,2013-04-26 00:40:00,
2013-04-25 17:45:00,69.1,14.4,27.58,SW,232,6.3,8.1,12,0.00,,---,0.00,VWS V14.01,2013-04-26 00:45:00,
2013-04-25 17:50:00,68.7,14.1,27.58,SSW,211,6.3,6.3,12,0.00,,---,0.00,VWS V14.01,2013-04-26 00:50:00,
2013-04-25 17:55:00,68.5,13.9,27.58,South,175,3.1,7.2,12,0.00,,---,0.00,VWS V14.01,2013-04-26 00:55:00,
2013-04-25 18:00:00,68.5,13.9,27.58,SW,227,6.3,8.1,12,0.00,,---,0.00,VWS V14.01,2013-04-26 01:00:00,
2013-04-25 18:05:00,68.9,14.2,27.58,SSW,196,4.9,5.8,12,0.00,,---,0.00,VWS V14.01,2013-04-26 01:05:00,
2013-04-25 18:10:00,69.1,14.4,27.58,SW,228,5.4,5.8,12,0.00,,---,0.00,VWS V14.01,2013-04-26 01:10:00,
2013-04-25 18:15:00,69.1,14.4,27.58,WNW,282,3.1,6.3,12,0.00,,---,0.00,VWS V14.01,2013-04-26 01:15:00,
2013-04-25 18:20:00,69.1,14.4,27.58,SW,230,5.8,5.8,12,0.00,,---,0.00,VWS V14.01,2013-04-26 01:20:00,
2013-04-25 18:25:00,68.4,13.8,27.58,WSW,251,8.3,8.3,12,0.00,,---,0.00,VWS V14.01,2013-04-26 01:25:00,
2013-04-25 18:29:00,67.8,13.4,27.58,WSW,241,6.3,10.1,12,0.00,,---,0.00,VWS V14.01,2013-04-26 01:29:00,
2013-04-25 18:34:00,67.5,13.1,27.58,SW,236,3.6,5.8,12,0.00,,---,0.00,VWS V14.01,2013-04-26 01:34:00,
2013-04-25 18:39:00,67.5,13.1,27.58,SW,224,0.0,3.1,12,0.00,,---,0.00,VWS V14.01,2013-04-26 01:39:00,
2013-04-25 18:44:00,67.5,13.1,27.58,South,179,4.9,6.3,12,0.00,,---,0.00,VWS V14.01,2013-04-26 01:44:00,
2013-04-25 18:49:00,67.3,13.0,27.58,SW,229,2.7,5.8,12,0.00,,---,0.00,VWS V14.01,2013-04-26 01:49:00,
2013-04-25 18:54:00,67.3,13.0,27.58,SW,222,3.6,3.6,12,0.00,,---,0.00,VWS V14.01,2013-04-26 01:54:00,
2013-04-25 18:59:00,66.9,12.7,27.58,SSW,209,5.8,5.8,12,0.00,,---,0.00,VWS V14.01,2013-04-26 01:59:00,
2013-04-25 19:04:00,66.6,12.4,27.58,SSE,159,0.0,0.0,12,0.00,,---,0.00,VWS V14.01,2013-04-26 02:04:00,
2013-04-25 19:09:00,66.4,12.3,27.58,South,185,3.1,5.4,12,0.00,,---,0.00,VWS V14.01,2013-04-26 02:09:00,
2013-04-25 19:14:00,65.8,13.6,27.58,SSE,163,2.7,3.6,13,0.00,,---,0.00,VWS V14.01,2013-04-26 02:14:00,
2013-04-25 19:19:00,65.5,13.4,27.58,South,183,0.0,0.0,13,0.00,,---,0.00,VWS V14.01,2013-04-26 02:19:00,
2013-04-25 19:24:00,65.1,13.1,27.58,South,187,0.0,0.0,13,0.00,,---,0.00,VWS V14.01,2013-04-26 02:24:00,
2013-04-25 19:29:00,64.8,12.8,27.58,SSW,209,0.0,0.0,13,0.00,,---,0.00,VWS V14.01,2013-04-26 02:29:00,
2013-04-25 19:34:00,64.2,12.4,27.61,SSW,209,0.0,0.0,13,0.00,,---,0.00,VWS V14.01,2013-04-26 02:34:00,
2013-04-25 19:39:00,63.7,11.9,27.61,SSE,162,0.0,0.0,13,0.00,,---,0.00,VWS V14.01,2013-04-26 02:39:00,
2013-04-25 19:44:00,63.1,11.5,27.61,South,179,0.0,0.0,13,0.00,,---,0.00,VWS V14.01,2013-04-26 02:44:00,
2013-04-25 19:49:00,62.6,11.1,27.61,South,189,0.0,0.0,13,0.00,,---,0.00,VWS V14.01,2013-04-26 02:49:00,
2013-04-25 19:54:00,62.2,12.5,27.61,South,190,0.0,0.0,14,0.00,,---,0.00,VWS V14.01,2013-04-26 02:54:00,
2013-04-25 19:59:00,61.9,12.2,27.61,SSW,207,0.0,0.0,14,0.00,,---,0.00,VWS V14.01,2013-04-26 02:59:00,
2013-04-25 20:04:00,61.9,12.2,27.61,South,174,0.0,0.0,14,0.00,,---,0.00,VWS V14.01,2013-04-26 03:04:00,
2013-04-25 20:09:00,61.7,12.1,27.61,SSW,193,0.0,0.0,14,0.00,,---,0.00,VWS V14.01,2013-04-26 03:09:00,
2013-04-25 20:14:00,61.3,11.8,27.61,SSW,201,0.0,0.0,14,0.00,,---,0.00,VWS V14.01,2013-04-26 03:14:00,
2013-04-25 20:19:00,61.3,11.8,27.61,SW,217,0.0,0.0,14,0.00,,---,0.00,VWS V14.01,2013-04-26 03:19:00,
2013-04-25 20:24:00,61.0,11.5,27.61,SSW,211,0.0,0.0,14,0.00,,---,0.00,VWS V14.01,2013-04-26 03:24:00,
2013-04-25 20:29:00,60.8,11.3,27.61,SSE,156,0.0,0.0,14,0.00,,---,0.00,VWS V14.01,2013-04-26 03:29:00,
2013-04-25 20:34:00,60.4,11.0,27.61,SSE,158,0.0,0.0,14,0.00,,---,0.00,VWS V14.01,2013-04-26 03:34:00,
2013-04-25 20:39:00,59.7,10.5,27.61,SE,142,0.0,0.0,14,0.00,,---,0.00,VWS V14.01,2013-04-26 03:39:00,
2013-04-25 20:44:00,59.2,10.0,27.61,SSE,165,0.0,0.0,14,0.00,,---,0.00,VWS V14.01,2013-04-26 03:44:00,
2013-04-25 20:49:00,58.8,9.8,27.64,SSE,167,0.0,0.0,14,0.00,,---,0.00,VWS V14.01,2013-04-26 03:49:00,
2013-04-25 20:54:00,58.5,9.5,27.64,South,187,0.0,0.0,14,0.00,,---,0.00,VWS V14.01,2013-04-26 03:54:00,
2013-04-25 20:59:00,58.1,9.2,27.64,SSW,210,0.0,0.0,14,0.00,,---,0.00,VWS V14.01,2013-04-26 03:59:00,
2013-04-25 21:01:00,58.1,9.2,27.64,SSW,210,0.0,0.0,14,0.00,,---,0.00,VWS V14.01,2013-04-26 04:01:00,
2013-04-25 21:06:00,58.1,9.2,27.64,South,176,0.0,0.0,14,0.00,,---,0.00,VWS V14.01,2013-04-26 04:06:00,
2013-04-25 21:11:00,58.3,9.3,27.64,South,180,0.0,0.0,14,0.00,,---,0.00,VWS V14.01,2013-04-26 04:11:00,
2013-04-25 21:16:00,58.3,9.3,27.64,SSE,156,0.0,0.0,14,0.00,,---,0.00,VWS V14.01,2013-04-26 04:16:00,
2013-04-25 21:21:00,58.1,9.2,27.64,South,176,0.0,0.0,14,0.00,,---,0.00,VWS V14.01,2013-04-26 04:21:00,
2013-04-25 21:26:00,57.9,9.0,27.64,SSW,194,0.0,0.0,14,0.00,,---,0.00,VWS V14.01,2013-04-26 04:26:00,
2013-04-25 21:31:00,58.1,9.2,27.64,South,177,0.0,0.0,14,0.00,,---,0.00,VWS V14.01,2013-04-26 04:31:00,
2013-04-25 21:36:00,58.6,9.6,27.64,South,178,0.0,0.0,14,0.00,,---,0.00,VWS V14.01,2013-04-26 04:36:00,
2013-04-25 21:41:00,59.0,9.9,27.64,SE,145,0.0,0.0,14,0.00,,---,0.00,VWS V14.01,2013-04-26 04:41:00,
2013-04-25 21:46:00,58.6,9.6,27.64,South,171,0.0,0.0,14,0.00,,---,0.00,VWS V14.01,2013-04-26 04:46:00,
2013-04-25 21:51:00,58.6,9.6,27.64,South,171,0.0,0.0,14,0.00,,---,0.00,VWS V14.01,2013-04-26 04:51:00,
2013-04-25 21:56:00,58.3,9.3,27.64,South,170,0.0,0.0,14,0.00,,---,0.00,VWS V14.01,2013-04-26 04:56:00,
2013-04-25 22:01:00,57.9,9.0,27.64,SSE,150,0.0,0.0,14,0.00,,---,0.00,VWS V14.01,2013-04-26 05:01:00,
2013-04-25 22:06:00,57.7,8.9,27.64,SSE,165,0.0,0.0,14,0.00,,---,0.00,VWS V14.01,2013-04-26 05:06:00,
2013-04-25 22:11:00,57.7,8.9,27.64,South,179,0.0,0.0,14,0.00,,---,0.00,VWS V14.01,2013-04-26 05:11:00,
2013-04-25 22:16:00,57.6,8.7,27.64,SSE,148,0.0,0.0,14,0.00,,---,0.00,VWS V14.01,2013-04-26 05:16:00,
2013-04-25 22:21:00,57.2,8.4,27.64,SSE,161,0.0,0.0,14,0.00,,---,0.00,VWS V14.01,2013-04-26 05:21:00,
2013-04-25 22:26:00,57.2,8.4,27.64,SW,215,0.0,0.0,14,0.00,,---,0.00,VWS V14.01,2013-04-26 05:26:00,
2013-04-25 22:31:00,57.0,9.8,27.64,South,169,0.0,0.0,15,0.00,,---,0.00,VWS V14.01,2013-04-26 05:31:00,
2013-04-25 22:36:00,56.8,9.7,27.64,South,180,0.0,0.0,15,0.00,,---,0.00,VWS V14.01,2013-04-26 05:36:00,
2013-04-25 22:41:00,56.8,9.7,27.64,South,176,0.0,0.0,15,0.00,,---,0.00,VWS V14.01,2013-04-26 05:41:00,
2013-04-25 22:46:00,56.7,9.6,27.64,SE,142,0.0,0.0,15,0.00,,---,0.00,VWS V14.01,2013-04-26 05:46:00,
2013-04-25 22:51:00,56.7,9.6,27.64,South,177,0.0,0.0,15,0.00,,---,0.00,VWS V14.01,2013-04-26 05:51:00,
2013-04-25 22:56:00,56.5,9.4,27.64,South,184,0.0,0.0,15,0.00,,---,0.00,VWS V14.01,2013-04-26 05:56:00,
2013-04-25 23:01:00,56.5,9.4,27.64,South,175,0.0,0.0,15,0.00,,---,0.00,VWS V14.01,2013-04-26 06:01:00,
2013-04-25 23:06:00,56.5,9.4,27.64,SSE,167,0.0,0.0,15,0.00,,---,0.00,VWS V14.01,2013-04-26 06:06:00,
2013-04-25 23:11:00,56.3,9.3,27.64,SSE,162,0.0,0.0,15,0.00,,---,0.00,VWS V14.01,2013-04-26 06:11:00,
2013-04-25 23:16:00,56.3,9.3,27.64,South,172,0.0,0.0,15,0.00,,---,0.00,VWS V14.01,2013-04-26 06:16:00,
2013-04-25 23:21:00,56.3,9.3,27.64,SSW,196,0.0,0.0,15,0.00,,---,0.00,VWS V14.01,2013-04-26 06:21:00,
2013-04-25 23:26:00,56.1,9.1,27.64,South,172,0.0,0.0,15,0.00,,---,0.00,VWS V14.01,2013-04-26 06:26:00,
2013-04-25 23:31:00,55.9,9.0,27.64,South,172,0.0,0.0,15,0.00,,---,0.00,VWS V14.01,2013-04-26 06:31:00,
2013-04-25 23:36:00,55.8,8.8,27.67,South,178,0.0,0.0,15,0.00,,---,0.00,VWS V14.01,2013-04-26 06:36:00,
2013-04-25 23:41:00,55.9,9.0,27.67,SSE,158,0.0,0.0,15,0.00,,---,0.00,VWS V14.01,2013-04-26 06:41:00,
2013-04-25 23:46:00,55.8,8.8,27.67,SSW,213,0.0,0.0,15,0.00,,---,0.00,VWS V14.01,2013-04-26 06:46:00,
2013-04-25 23:51:00,55.9,9.0,27.67,South,173,0.0,0.0,15,0.00,,---,0.00,VWS V14.01,2013-04-26 06:51:00,
2013-04-25 23:56:00,56.1,9.1,27.67,SSE,166,0.0,0.0,15,0.00,,---,0.00,VWS V14.01,2013-04-26 06:56:00,